createdAt,value
2018-09-04T00:00:58.628Z,99.99
2018-09-04T00:01:58.631Z,99.99
2018-09-04T00:02:58.634Z,99.99
2018-09-04T00:03:58.636Z,99.99
2018-09-04T00:04:58.640Z,99.99
2018-09-04T00:05:58.642Z,99.99
2018-09-04T00:06:58.644Z,99.99
2018-09-04T00:07:58.649Z,99.99
2018-09-04T00:08:58.655Z,99.99
2018-09-04T00:09:58.661Z,99.99
2018-09-04T00:10:58.655Z,99.99
2018-09-04T00:11:58.660Z,99.99
2018-09-04T00:12:58.661Z,99.99
2018-09-04T00:13:58.666Z,99.99
2018-09-04T00:14:58.667Z,99.99
2018-09-04T00:15:58.670Z,99.99
2018-09-04T00:16:58.674Z,99.99
2018-09-04T00:17:58.676Z,99.99
2018-09-04T00:18:58.682Z,99.99
2018-09-04T00:19:58.683Z,99.99
2018-09-04T00:20:58.685Z,99.99
2018-09-04T00:21:58.687Z,99.99
2018-09-04T00:22:58.691Z,99.99
2018-09-04T00:23:58.691Z,99.99
2018-09-04T00:24:58.695Z,99.99
2018-09-04T00:25:58.698Z,99.99
2018-09-04T00:26:58.701Z,99.99
2018-09-04T00:27:58.703Z,99.99
2018-09-04T00:28:58.706Z,99.99
2018-09-04T00:29:58.708Z,99.99
2018-09-04T00:30:58.711Z,99.99
2018-09-04T00:31:58.714Z,99.99
2018-09-04T00:32:58.717Z,99.99
2018-09-04T00:33:58.719Z,99.99
2018-09-04T00:34:58.720Z,99.99
2018-09-04T00:35:58.723Z,99.99
2018-09-04T00:36:58.728Z,99.99
2018-09-04T00:37:58.730Z,99.88
2018-09-04T00:38:58.731Z,99.44
2018-09-04T00:39:58.735Z,99.54
2018-09-04T00:40:58.742Z,98.63
2018-09-04T00:41:58.744Z,98.10
2018-09-04T00:42:58.743Z,98.29
2018-09-04T00:43:58.745Z,98.39
2018-09-04T00:44:58.748Z,98.10
2018-09-04T00:45:58.751Z,97.72
2018-09-04T00:46:58.753Z,97.14
2018-09-04T00:47:58.757Z,97.24
2018-09-04T00:48:58.759Z,96.85
2018-09-04T00:49:58.763Z,96.66
2018-09-04T00:50:58.766Z,97.04
2018-09-04T00:51:58.767Z,96.17
2018-09-04T00:52:58.770Z,95.60
2018-09-04T00:53:58.773Z,95.60
2018-09-04T00:54:58.774Z,95.60
2018-09-04T00:55:58.777Z,95.50
2018-09-04T00:56:58.784Z,95.60
2018-09-04T00:57:58.783Z,95.60
2018-09-04T00:58:58.839Z,95.50
2018-09-04T00:59:58.788Z,95.02
2018-09-04T01:00:58.792Z,95.40
2018-09-04T01:01:58.793Z,95.31
2018-09-04T01:02:58.797Z,95.21
2018-09-04T01:03:58.798Z,95.40
2018-09-04T01:04:58.802Z,94.92
2018-09-04T01:05:58.804Z,95.21
2018-09-04T01:06:58.807Z,94.92
2018-09-04T01:07:58.812Z,94.34
2018-09-04T01:08:58.814Z,94.44
2018-09-04T01:09:58.815Z,95.12
2018-09-04T01:10:58.817Z,94.44
2018-09-04T01:11:58.820Z,94.82
2018-09-04T01:12:58.822Z,94.92
2018-09-04T01:13:58.826Z,94.82
2018-09-04T01:14:58.828Z,94.15
2018-09-04T01:15:58.830Z,94.06
2018-09-04T01:16:58.834Z,93.67
2018-09-04T01:17:58.837Z,93.29
2018-09-04T01:18:58.839Z,93.00
2018-09-04T01:19:58.841Z,92.42
2018-09-04T01:20:58.844Z,92.42
2018-09-04T01:21:58.849Z,92.22
2018-09-04T01:22:58.849Z,91.75
2018-09-04T01:23:58.854Z,91.36
2018-09-04T01:24:58.855Z,90.78
2018-09-04T01:25:58.859Z,90.40
2018-09-04T01:26:58.860Z,90.40
2018-09-04T01:27:58.862Z,90.50
2018-09-04T01:28:58.866Z,89.92
2018-09-04T01:29:58.870Z,89.82
2018-09-04T01:30:58.870Z,89.92
2018-09-04T01:31:58.878Z,90.01
2018-09-04T01:32:58.875Z,89.63
2018-09-04T01:33:58.878Z,89.92
2018-09-04T01:34:58.880Z,89.92
2018-09-04T01:35:58.886Z,90.30
2018-09-04T01:36:58.888Z,90.40
2018-09-04T01:37:58.892Z,90.40
2018-09-04T01:38:58.891Z,90.30
2018-09-04T01:39:58.894Z,91.36
2018-09-04T01:40:58.898Z,90.50
2018-09-04T01:41:58.899Z,90.59
2018-09-04T01:42:58.901Z,90.50
2018-09-04T01:43:58.903Z,90.40
2018-09-04T01:44:58.910Z,89.72
2018-09-04T01:45:58.919Z,89.72
2018-09-04T01:46:58.911Z,89.82
2018-09-04T01:47:58.916Z,89.63
2018-09-04T01:48:58.919Z,90.01
2018-09-04T01:49:58.922Z,89.72
2018-09-04T01:50:58.924Z,90.30
2018-09-04T01:51:58.927Z,90.78
2018-09-04T01:52:58.929Z,91.27
2018-09-04T01:53:58.931Z,91.55
2018-09-04T01:54:58.935Z,91.75
2018-09-04T01:55:58.937Z,91.65
2018-09-04T01:56:58.942Z,92.22
2018-09-04T01:57:58.943Z,92.22
2018-09-04T01:58:58.945Z,92.95
2018-09-04T01:59:58.948Z,93.19
2018-09-04T02:00:58.951Z,93.43
2018-09-04T02:01:58.954Z,94.40
2018-09-04T02:02:58.957Z,94.20
2018-09-04T02:03:58.958Z,94.78
2018-09-04T02:04:58.962Z,95.07
2018-09-04T02:05:58.964Z,95.74
2018-09-04T02:06:58.967Z,95.45
2018-09-04T02:07:58.969Z,95.55
2018-09-04T02:08:58.973Z,95.74
2018-09-04T02:09:58.976Z,95.65
2018-09-04T02:10:58.977Z,96.51
2018-09-04T02:11:58.983Z,96.12
2018-09-04T02:12:58.983Z,96.89
2018-09-04T02:13:58.987Z,96.03
2018-09-04T02:14:58.988Z,96.61
2018-09-04T02:15:58.990Z,96.70
2018-09-04T02:16:58.993Z,96.42
2018-09-04T02:17:58.997Z,96.51
2018-09-04T02:18:58.998Z,96.51
2018-09-04T02:19:59.001Z,96.89
2018-09-04T02:20:59.008Z,97.09
2018-09-04T02:21:59.007Z,97.19
2018-09-04T02:22:59.011Z,96.89
2018-09-04T02:23:59.013Z,97.28
2018-09-04T02:24:59.016Z,97.86
2018-09-04T02:25:59.020Z,98.14
2018-09-04T02:26:59.022Z,98.54
2018-09-04T02:27:59.024Z,98.44
2018-09-04T02:28:59.028Z,97.76
2018-09-04T02:29:59.029Z,98.63
2018-09-04T02:30:59.040Z,99.30
2018-09-04T02:31:59.035Z,98.63
2018-09-04T02:32:59.045Z,98.82
2018-09-04T02:33:59.042Z,98.24
2018-09-04T02:34:59.074Z,98.34
2018-09-04T02:35:59.045Z,98.63
2018-09-04T02:36:59.050Z,98.14
2018-09-04T02:37:59.052Z,98.72
2018-09-04T02:38:59.055Z,98.34
2018-09-04T02:39:59.058Z,98.63
2018-09-04T02:40:59.060Z,97.86
2018-09-04T02:41:59.069Z,98.63
2018-09-04T02:42:59.066Z,98.82
2018-09-04T02:43:59.069Z,98.54
2018-09-04T02:44:59.070Z,98.63
2018-09-04T02:45:59.077Z,98.54
2018-09-04T02:46:59.078Z,99.01
2018-09-04T02:47:59.081Z,99.69
2018-09-04T02:48:59.084Z,99.44
2018-09-04T02:49:59.087Z,99.99
2018-09-04T02:50:59.088Z,99.99
2018-09-04T02:51:59.091Z,99.99
2018-09-04T02:52:59.093Z,99.99
2018-09-04T02:53:59.097Z,99.99
2018-09-04T02:54:59.102Z,99.99
2018-09-04T02:55:59.103Z,99.99
2018-09-04T02:56:59.106Z,99.99
2018-09-04T02:57:59.108Z,99.99
2018-09-04T02:58:59.111Z,99.99
2018-09-04T02:59:59.115Z,99.99
2018-09-04T03:00:59.117Z,99.99
2018-09-04T03:01:59.121Z,99.99
2018-09-04T03:02:59.121Z,99.99
2018-09-04T03:03:59.126Z,99.99
2018-09-04T03:04:59.128Z,99.99
2018-09-04T03:05:59.132Z,99.99
2018-09-04T03:06:59.135Z,99.99
2018-09-04T03:07:59.138Z,99.99
2018-09-04T03:08:59.140Z,99.99
2018-09-04T03:09:59.143Z,99.99
2018-09-04T03:10:59.144Z,99.99
2018-09-04T03:11:59.147Z,99.99
2018-09-04T03:12:59.153Z,99.99
2018-09-04T03:13:59.201Z,99.99
2018-09-04T03:14:59.156Z,99.99
2018-09-04T03:15:59.158Z,99.99
2018-09-04T03:16:59.161Z,99.99
2018-09-04T03:17:59.166Z,99.99
2018-09-04T03:18:59.166Z,99.99
2018-09-04T03:19:59.171Z,99.99
2018-09-04T03:20:59.172Z,99.99
2018-09-04T03:21:59.175Z,99.99
2018-09-04T03:22:59.210Z,99.99
2018-09-04T03:23:59.180Z,99.99
2018-09-04T03:24:59.184Z,99.99
2018-09-04T03:25:59.185Z,99.99
2018-09-04T03:26:59.187Z,99.99
2018-09-04T03:27:59.190Z,99.99
2018-09-04T03:28:59.193Z,99.99
2018-09-04T03:29:59.195Z,99.99
2018-09-04T03:30:59.198Z,99.99
2018-09-04T03:31:59.200Z,99.99
2018-09-04T03:32:59.201Z,99.99
2018-09-04T03:33:59.204Z,99.99
2018-09-04T03:34:59.207Z,99.99
2018-09-04T03:35:59.209Z,99.99
2018-09-04T03:36:59.213Z,99.99
2018-09-04T03:37:59.216Z,99.99
2018-09-04T03:38:59.216Z,99.99
2018-09-04T03:39:59.221Z,99.99
2018-09-04T03:40:59.222Z,99.99
2018-09-04T03:41:59.225Z,99.99
2018-09-04T03:42:59.226Z,99.99
2018-09-04T03:43:59.230Z,99.99
2018-09-04T03:44:59.231Z,99.99
2018-09-04T03:45:59.236Z,99.99
2018-09-04T03:46:59.236Z,99.99
2018-09-04T03:47:59.239Z,99.99
2018-09-04T03:48:59.242Z,99.99
2018-09-04T03:49:59.244Z,99.99
2018-09-04T03:50:59.246Z,99.99
2018-09-04T03:51:59.248Z,99.99
2018-09-04T03:52:59.250Z,99.99
2018-09-04T03:53:59.253Z,99.99
2018-09-04T03:54:59.255Z,99.99
2018-09-04T03:55:59.256Z,99.99
2018-09-04T03:56:59.259Z,99.99
2018-09-04T03:57:59.263Z,99.99
2018-09-04T03:58:59.264Z,99.99
2018-09-04T03:59:59.266Z,99.99
2018-09-04T04:00:59.268Z,99.99
2018-09-04T04:01:59.272Z,99.99
2018-09-04T04:02:59.273Z,99.99
2018-09-04T04:03:59.276Z,99.99
2018-09-04T04:04:59.279Z,99.99
2018-09-04T04:05:59.281Z,99.99
2018-09-04T04:06:59.282Z,99.99
2018-09-04T04:07:59.285Z,99.99
2018-09-04T04:08:59.287Z,99.99
2018-09-04T04:09:59.289Z,99.99
2018-09-04T04:10:59.293Z,99.99
2018-09-04T04:11:59.332Z,99.99
2018-09-04T04:12:59.295Z,99.99
2018-09-04T04:13:59.296Z,99.99
2018-09-04T04:14:59.299Z,99.99
2018-09-04T04:15:59.301Z,99.99
2018-09-04T04:16:59.304Z,99.99
2018-09-04T04:17:59.305Z,99.99
2018-09-04T04:18:59.306Z,99.99
2018-09-04T04:19:59.308Z,99.99
2018-09-04T04:20:59.311Z,99.99
2018-09-04T04:21:59.313Z,99.99
2018-09-04T04:22:59.315Z,99.99
2018-09-04T04:23:59.388Z,99.99
2018-09-04T04:24:59.319Z,99.99
2018-09-04T04:25:59.322Z,99.99
2018-09-04T04:26:59.322Z,99.99
2018-09-04T04:27:59.325Z,99.99
2018-09-04T04:28:59.326Z,99.99
2018-09-04T04:29:59.332Z,99.99
2018-09-04T04:30:59.329Z,99.99
2018-09-04T04:31:59.337Z,99.99
2018-09-04T04:32:59.365Z,99.99
2018-09-04T04:33:59.337Z,99.99
2018-09-04T04:34:59.336Z,99.99
2018-09-04T04:35:59.339Z,99.99
2018-09-04T04:36:59.340Z,99.99
2018-09-04T04:37:59.343Z,99.99
2018-09-04T04:38:59.343Z,99.99
2018-09-04T04:39:59.391Z,99.99
2018-09-04T04:40:59.349Z,99.99
2018-09-04T04:41:59.355Z,99.99
2018-09-04T04:42:59.356Z,99.99
2018-09-04T04:43:59.354Z,99.99
2018-09-04T04:44:59.356Z,99.99
2018-09-04T04:45:59.359Z,99.99
2018-09-04T04:46:59.358Z,99.99
2018-09-04T04:47:59.419Z,99.99
2018-09-04T04:48:59.363Z,99.99
2018-09-04T04:49:59.369Z,99.99
2018-09-04T04:50:59.367Z,99.99
2018-09-04T04:51:59.369Z,99.99
2018-09-04T04:52:59.371Z,99.99
2018-09-04T04:53:59.372Z,99.99
2018-09-04T04:54:59.375Z,99.99
2018-09-04T04:55:59.379Z,99.99
2018-09-04T04:56:59.377Z,99.99
2018-09-04T04:57:59.380Z,99.99
2018-09-04T04:58:59.380Z,99.99
2018-09-04T04:59:59.384Z,99.99
2018-09-04T05:00:59.384Z,99.99
2018-09-04T05:01:59.390Z,99.99
2018-09-04T05:02:59.388Z,99.99
2018-09-04T05:03:59.390Z,99.99
2018-09-04T05:04:59.391Z,99.99
2018-09-04T05:05:59.394Z,99.99
2018-09-04T05:06:59.396Z,99.99
2018-09-04T05:07:59.399Z,99.99
2018-09-04T05:08:59.400Z,99.99
2018-09-04T05:09:59.405Z,99.99
2018-09-04T05:10:59.449Z,99.99
2018-09-04T05:11:59.407Z,99.99
2018-09-04T05:12:59.407Z,99.99
2018-09-04T05:13:59.410Z,99.99
2018-09-04T05:14:59.410Z,99.99
2018-09-04T05:15:59.416Z,99.99
2018-09-04T05:16:59.415Z,99.99
2018-09-04T05:17:59.416Z,99.99
2018-09-04T05:18:59.417Z,99.99
2018-09-04T05:19:59.420Z,99.99
2018-09-04T05:20:59.422Z,99.99
2018-09-04T05:21:59.426Z,99.99
2018-09-04T05:22:59.424Z,99.99
2018-09-04T05:23:59.427Z,99.99
2018-09-04T05:24:59.429Z,99.99
2018-09-04T05:25:59.430Z,99.99
2018-09-04T05:26:59.432Z,99.99
2018-09-04T05:27:59.435Z,99.99
2018-09-04T05:28:59.439Z,99.99
2018-09-04T05:29:59.439Z,99.99
2018-09-04T05:30:59.438Z,99.99
2018-09-04T05:31:59.443Z,99.99
2018-09-04T05:32:59.444Z,99.99
2018-09-04T05:33:59.446Z,99.99
2018-09-04T05:34:59.446Z,99.99
2018-09-04T05:35:59.450Z,99.99
2018-09-04T05:36:59.454Z,99.99
2018-09-04T05:37:59.453Z,99.99
2018-09-04T05:38:59.453Z,99.99
2018-09-04T05:39:59.459Z,99.99
2018-09-04T05:40:59.458Z,99.99
2018-09-04T05:41:59.463Z,99.99
2018-09-04T05:42:59.463Z,99.99
2018-09-04T05:43:59.466Z,99.99
2018-09-04T05:44:59.466Z,99.99
2018-09-04T05:45:59.470Z,99.99
2018-09-04T05:46:59.473Z,99.99
2018-09-04T05:47:59.472Z,99.99
2018-09-04T05:48:59.474Z,99.99
2018-09-04T05:49:59.478Z,99.99
2018-09-04T05:50:59.479Z,99.99
2018-09-04T05:51:59.480Z,99.99
2018-09-04T05:52:59.482Z,99.99
2018-09-04T05:53:59.485Z,99.99
2018-09-04T05:54:59.490Z,99.99
2018-09-04T05:55:59.487Z,99.99
2018-09-04T05:56:59.492Z,99.99
2018-09-04T05:57:59.494Z,99.99
2018-09-04T05:58:59.494Z,99.99
2018-09-04T05:59:59.499Z,99.99
2018-09-04T06:00:59.501Z,99.99
2018-09-04T06:01:59.501Z,99.99
2018-09-04T06:02:59.506Z,99.99
2018-09-04T06:03:59.506Z,99.99
2018-09-04T06:04:59.511Z,99.99
2018-09-04T06:05:59.513Z,99.99
2018-09-04T06:06:59.514Z,99.99
2018-09-04T06:07:59.514Z,99.99
2018-09-04T06:08:59.519Z,99.99
2018-09-04T06:09:59.519Z,99.99
2018-09-04T06:10:59.521Z,99.99
2018-09-04T06:11:59.524Z,99.99
2018-09-04T06:12:59.526Z,99.99
2018-09-04T06:13:59.530Z,99.99
2018-09-04T06:14:59.529Z,99.99
2018-09-04T06:15:59.533Z,99.99
2018-09-04T06:16:59.535Z,99.99
2018-09-04T06:17:59.537Z,99.99
2018-09-04T06:18:59.539Z,99.99
2018-09-04T06:19:59.563Z,99.99
2018-09-04T06:20:59.548Z,99.99
2018-09-04T06:21:59.551Z,99.99
2018-09-04T06:22:59.550Z,99.99
2018-09-04T06:23:59.553Z,99.99
2018-09-04T06:24:59.556Z,99.99
2018-09-04T06:25:59.558Z,99.99
2018-09-04T06:26:59.560Z,99.99
2018-09-04T06:27:59.563Z,99.99
2018-09-04T06:28:59.566Z,99.99
2018-09-04T06:29:59.568Z,99.99
2018-09-04T06:30:59.570Z,99.99
2018-09-04T06:31:59.573Z,99.99
2018-09-04T06:32:59.577Z,99.99
2018-09-04T06:33:59.585Z,99.99
2018-09-04T06:34:59.579Z,99.99
2018-09-04T06:35:59.583Z,99.99
2018-09-04T06:36:59.586Z,99.99
2018-09-04T06:37:59.589Z,99.99
2018-09-04T06:38:59.598Z,99.99
2018-09-04T06:39:59.594Z,99.99
2018-09-04T06:40:59.596Z,99.99
2018-09-04T06:41:59.600Z,99.99
2018-09-04T06:42:59.600Z,99.99
2018-09-04T06:43:59.607Z,99.99
2018-09-04T06:44:59.608Z,99.99
2018-09-04T06:45:59.611Z,99.99
2018-09-04T06:46:59.613Z,99.99
2018-09-04T06:47:59.617Z,99.99
2018-09-04T06:48:59.621Z,99.99
2018-09-04T06:49:59.624Z,99.99
2018-09-04T06:50:59.631Z,99.99
2018-09-04T06:51:59.630Z,99.99
2018-09-04T06:52:59.633Z,99.99
2018-09-04T06:53:59.635Z,99.99
2018-09-04T06:54:59.637Z,99.99
2018-09-04T06:55:59.642Z,99.99
2018-09-04T06:56:59.644Z,99.99
2018-09-04T06:57:59.749Z,99.99
2018-09-04T06:58:59.650Z,99.99
2018-09-04T06:59:59.653Z,99.99
2018-09-04T07:00:59.657Z,99.99
2018-09-04T07:01:59.665Z,99.99
2018-09-04T07:02:59.664Z,99.99
2018-09-04T07:03:59.667Z,99.99
2018-09-04T07:04:59.675Z,99.99
2018-09-04T07:05:59.738Z,99.99
2018-09-04T07:06:59.678Z,99.99
2018-09-04T07:07:59.681Z,99.99
2018-09-04T07:08:59.684Z,99.99
2018-09-04T07:09:59.690Z,99.99
2018-09-04T07:10:59.693Z,99.99
2018-09-04T07:11:59.696Z,99.99
2018-09-04T07:12:59.701Z,99.99
2018-09-04T07:13:59.704Z,99.99
2018-09-04T07:14:59.713Z,99.99
2018-09-04T07:15:59.712Z,99.99
2018-09-04T07:16:59.736Z,99.99
2018-09-04T07:17:59.721Z,99.99
2018-09-04T07:18:59.723Z,99.99
2018-09-04T07:19:59.726Z,99.99
2018-09-04T07:20:59.731Z,99.99
2018-09-04T07:21:59.735Z,99.99
2018-09-04T07:22:59.739Z,99.99
2018-09-04T07:23:59.793Z,99.99
2018-09-04T07:24:59.748Z,99.99
2018-09-04T07:25:59.751Z,99.99
2018-09-04T07:26:59.757Z,99.99
2018-09-04T07:27:59.759Z,99.99
2018-09-04T07:28:59.762Z,99.99
2018-09-04T07:29:59.767Z,99.02
2018-09-04T07:30:59.771Z,98.44
2018-09-04T07:31:59.775Z,99.35
2018-09-04T07:32:59.780Z,99.99
2018-09-04T07:33:59.786Z,99.55
2018-09-04T07:34:59.788Z,99.64
2018-09-04T07:35:59.790Z,99.55
2018-09-04T07:36:59.796Z,99.60
2018-09-04T07:37:59.799Z,98.63
2018-09-04T07:38:59.803Z,98.25
2018-09-04T07:39:59.808Z,97.96
2018-09-04T07:40:59.812Z,96.61
2018-09-04T07:41:59.894Z,96.12
2018-09-04T07:42:59.819Z,94.73
2018-09-04T07:43:59.823Z,94.73
2018-09-04T07:44:59.829Z,96.27
2018-09-04T07:45:59.835Z,93.85
2018-09-04T07:46:59.837Z,94.15
2018-09-04T07:47:59.840Z,94.34
2018-09-04T07:48:59.844Z,92.89
2018-09-04T07:49:59.849Z,92.60
2018-09-04T07:50:59.855Z,91.93
2018-09-04T07:51:59.857Z,92.32
2018-09-04T07:52:59.862Z,91.88
2018-09-04T07:53:59.866Z,91.54
2018-09-04T07:54:59.869Z,92.16
2018-09-04T07:55:59.874Z,91.68
2018-09-04T07:56:59.884Z,90.91
2018-09-04T07:57:59.885Z,91.49
2018-09-04T07:58:59.895Z,91.68
2018-09-04T07:59:59.894Z,91.88
2018-09-04T08:00:59.957Z,90.91
2018-09-04T08:01:59.903Z,90.05
2018-09-04T08:02:59.907Z,89.99
2018-09-04T08:03:59.911Z,89.41
2018-09-04T08:04:59.918Z,88.45
2018-09-04T08:05:59.925Z,87.19
2018-09-04T08:06:59.927Z,87.29
2018-09-04T08:07:59.932Z,86.32
2018-09-04T08:08:59.938Z,86.61
2018-09-04T08:09:59.969Z,86.46
2018-09-04T08:10:59.948Z,85.98
2018-09-04T08:11:59.952Z,85.88
2018-09-04T08:12:59.958Z,86.07
2018-09-04T08:13:59.963Z,85.88
2018-09-04T08:14:59.971Z,84.95
2018-09-04T08:15:59.974Z,83.89
2018-09-04T08:16:59.981Z,83.84
2018-09-04T08:17:59.984Z,82.78
2018-09-04T08:18:59.991Z,82.58
2018-09-04T08:19:59.998Z,82.78
2018-09-04T08:21:00.041Z,82.97
2018-09-04T08:22:00.009Z,83.01
2018-09-04T08:23:00.016Z,82.29
2018-09-04T08:24:00.019Z,82.20
2018-09-04T08:25:00.025Z,82.29
2018-09-04T08:26:00.037Z,82.10
2018-09-04T08:27:00.037Z,82.29
2018-09-04T08:28:00.046Z,82.10
2018-09-04T08:29:00.050Z,82.62
2018-09-04T08:30:00.056Z,81.23
2018-09-04T08:31:00.064Z,81.42
2018-09-04T08:32:00.070Z,81.13
2018-09-04T08:33:00.097Z,81.42
2018-09-04T08:34:00.082Z,80.88
2018-09-04T08:35:00.089Z,80.69
2018-09-04T08:36:00.099Z,80.69
2018-09-04T08:37:00.102Z,80.69
2018-09-04T08:38:00.108Z,81.52
2018-09-04T08:39:00.116Z,82.10
2018-09-04T08:40:00.186Z,82.68
2018-09-04T08:41:00.131Z,82.54
2018-09-04T08:42:00.138Z,83.03
2018-09-04T08:43:00.146Z,83.12
2018-09-04T08:44:00.150Z,82.83
2018-09-04T08:45:00.158Z,82.93
2018-09-04T08:46:00.166Z,82.64
2018-09-04T08:47:00.172Z,82.35
2018-09-04T08:48:00.179Z,82.39
2018-09-04T08:49:00.185Z,81.81
2018-09-04T08:50:00.194Z,81.04
2018-09-04T08:51:00.199Z,81.13
2018-09-04T08:52:00.206Z,81.42
2018-09-04T08:53:00.214Z,82.20
2018-09-04T08:54:00.220Z,82.10
2018-09-04T08:55:00.227Z,81.17
2018-09-04T08:56:00.236Z,80.69
2018-09-04T08:57:00.241Z,81.81
2018-09-04T08:58:00.248Z,82.00
2018-09-04T08:59:00.253Z,82.54
2018-09-04T09:00:00.262Z,82.64
2018-09-04T09:01:00.271Z,82.93
2018-09-04T09:02:00.276Z,82.93
2018-09-04T09:03:00.283Z,82.54
2018-09-04T09:04:00.288Z,83.06
2018-09-04T09:05:00.297Z,81.90
2018-09-04T09:06:00.303Z,81.56
2018-09-04T09:07:00.313Z,81.07
2018-09-04T09:08:00.315Z,80.40
2018-09-04T09:09:00.323Z,80.20
2018-09-04T09:10:00.338Z,80.20
2018-09-04T09:11:00.341Z,80.40
2018-09-04T09:12:00.343Z,79.52
2018-09-04T09:13:00.350Z,79.47
2018-09-04T09:14:00.357Z,80.20
2018-09-04T09:15:00.367Z,79.47
2018-09-04T09:16:00.372Z,79.57
2018-09-04T09:17:00.379Z,78.50
2018-09-04T09:18:00.386Z,78.74
2018-09-04T09:19:00.396Z,78.92
2018-09-04T09:20:00.399Z,78.15
2018-09-04T09:21:00.407Z,78.74
2018-09-04T09:22:00.413Z,78.25
2018-09-04T09:23:00.469Z,77.76
2018-09-04T09:24:00.427Z,77.22
2018-09-04T09:25:00.438Z,75.71
2018-09-04T09:26:00.442Z,76.48
2018-09-04T09:27:00.450Z,76.29
2018-09-04T09:28:00.458Z,76.00
2018-09-04T09:29:00.465Z,75.90
2018-09-04T09:30:00.472Z,75.23
2018-09-04T09:31:00.479Z,75.07
2018-09-04T09:32:00.490Z,75.03
2018-09-04T09:33:00.502Z,74.80
2018-09-04T09:34:00.504Z,75.48
2018-09-04T09:35:00.512Z,76.06
2018-09-04T09:36:00.518Z,75.38
2018-09-04T09:37:00.591Z,74.99
2018-09-04T09:38:00.534Z,75.19
2018-09-04T09:39:00.542Z,75.77
2018-09-04T09:40:00.550Z,75.87
2018-09-04T09:41:00.561Z,76.00
2018-09-04T09:42:00.566Z,74.87
2018-09-04T09:43:00.575Z,74.97
2018-09-04T09:44:00.583Z,74.23
2018-09-04T09:45:00.591Z,73.55
2018-09-04T09:46:00.599Z,73.65
2018-09-04T09:47:00.608Z,73.49
2018-09-04T09:48:00.616Z,73.49
2018-09-04T09:49:00.625Z,71.62
2018-09-04T09:50:00.635Z,71.58
2018-09-04T09:51:00.641Z,71.97
2018-09-04T09:52:00.655Z,71.55
2018-09-04T09:53:00.844Z,72.94
2018-09-04T09:54:00.749Z,72.45
2018-09-04T09:55:00.678Z,72.61
2018-09-04T09:56:00.688Z,72.52
2018-09-04T09:57:00.697Z,72.75
2018-09-04T09:58:00.706Z,71.29
2018-09-04T09:59:00.719Z,71.58
2018-09-04T10:00:00.743Z,71.20
2018-09-04T10:01:00.819Z,70.26
2018-09-04T10:02:00.746Z,71.10
2018-09-04T10:03:00.756Z,71.74
2018-09-04T10:04:00.825Z,72.52
2018-09-04T10:05:00.776Z,72.61
2018-09-04T10:06:00.783Z,72.58
2018-09-04T10:07:00.795Z,72.71
2018-09-04T10:08:00.829Z,72.23
2018-09-04T10:09:00.814Z,71.94
2018-09-04T10:10:00.891Z,71.94
2018-09-04T10:11:00.832Z,72.03
2018-09-04T10:12:00.842Z,72.13
2018-09-04T10:13:00.852Z,72.81
2018-09-04T10:14:00.862Z,72.97
2018-09-04T10:15:00.870Z,73.07
2018-09-04T10:16:00.885Z,72.61
2018-09-04T10:17:00.889Z,72.52
2018-09-04T10:18:00.900Z,72.42
2018-09-04T10:19:00.908Z,72.42
2018-09-04T10:20:00.921Z,72.29
2018-09-04T10:21:00.929Z,72.39
2018-09-04T10:22:00.938Z,72.87
2018-09-04T10:23:00.946Z,72.87
2018-09-04T10:24:00.957Z,72.64
2018-09-04T10:25:00.968Z,73.13
2018-09-04T10:26:00.976Z,73.13
2018-09-04T10:27:00.985Z,72.64
2018-09-04T10:28:00.996Z,72.35
2018-09-04T10:29:01.002Z,72.93
2018-09-04T10:30:01.015Z,73.13
2018-09-04T10:31:01.029Z,73.03
2018-09-04T10:32:01.030Z,73.22
2018-09-04T10:33:01.042Z,73.71
2018-09-04T10:34:01.047Z,73.48
2018-09-04T10:35:01.056Z,73.42
2018-09-04T10:36:01.066Z,73.42
2018-09-04T10:37:01.076Z,73.61
2018-09-04T10:38:01.084Z,73.32
2018-09-04T10:39:01.091Z,73.13
2018-09-04T10:40:01.100Z,73.22
2018-09-04T10:41:01.113Z,72.93
2018-09-04T10:42:01.171Z,73.65
2018-09-04T10:43:01.128Z,72.39
2018-09-04T10:44:01.134Z,72.39
2018-09-04T10:45:01.143Z,72.35
2018-09-04T10:46:01.156Z,72.09
2018-09-04T10:47:01.164Z,72.49
2018-09-04T10:48:01.169Z,72.39
2018-09-04T10:49:01.178Z,72.49
2018-09-04T10:50:01.186Z,72.87
2018-09-04T10:51:01.195Z,71.90
2018-09-04T10:52:01.202Z,71.80
2018-09-04T10:53:01.211Z,71.90
2018-09-04T10:54:01.225Z,71.94
2018-09-04T10:55:01.228Z,71.42
2018-09-04T10:56:01.237Z,71.61
2018-09-04T10:57:01.246Z,71.90
2018-09-04T10:58:01.253Z,72.00
2018-09-04T10:59:01.262Z,71.90
2018-09-04T11:00:01.269Z,71.45
2018-09-04T11:01:01.279Z,71.45
2018-09-04T11:02:01.290Z,71.36
2018-09-04T11:03:01.295Z,71.64
2018-09-04T11:04:01.304Z,71.51
2018-09-04T11:05:01.313Z,71.32
2018-09-04T11:06:01.320Z,71.48
2018-09-04T11:07:01.328Z,71.38
2018-09-04T11:08:01.337Z,72.35
2018-09-04T11:09:01.349Z,72.55
2018-09-04T11:10:01.482Z,72.35
2018-09-04T11:11:01.362Z,73.52
2018-09-04T11:12:01.370Z,72.35
2018-09-04T11:13:01.379Z,72.74
2018-09-04T11:14:01.387Z,72.09
2018-09-04T11:15:01.395Z,71.61
2018-09-04T11:16:01.422Z,71.42
2018-09-04T11:17:01.412Z,70.15
2018-09-04T11:18:01.421Z,70.09
2018-09-04T11:19:01.431Z,70.19
2018-09-04T11:20:01.437Z,69.90
2018-09-04T11:21:01.444Z,70.48
2018-09-04T11:22:01.454Z,69.64
2018-09-04T11:23:01.462Z,69.25
2018-09-04T11:24:01.470Z,68.96
2018-09-04T11:25:01.479Z,69.06
2018-09-04T11:26:01.487Z,69.12
2018-09-04T11:27:01.492Z,69.15
2018-09-04T11:28:01.503Z,70.29
2018-09-04T11:29:01.514Z,69.80
2018-09-04T11:30:01.520Z,69.70
2018-09-04T11:31:01.530Z,69.32
2018-09-04T11:32:01.563Z,68.63
2018-09-04T11:33:01.545Z,68.79
2018-09-04T11:34:01.551Z,69.18
2018-09-04T11:35:01.560Z,69.28
2018-09-04T11:36:01.571Z,68.99
2018-09-04T11:37:01.576Z,68.89
2018-09-04T11:38:01.585Z,69.57
2018-09-04T11:39:01.592Z,69.86
2018-09-04T11:40:01.601Z,70.29
2018-09-04T11:41:01.610Z,69.60
2018-09-04T11:42:01.619Z,69.22
2018-09-04T11:43:01.626Z,68.87
2018-09-04T11:44:01.632Z,68.08
2018-09-04T11:45:01.644Z,67.11
2018-09-04T11:46:01.650Z,67.73
2018-09-04T11:47:01.763Z,67.15
2018-09-04T11:48:01.664Z,67.05
2018-09-04T11:49:01.676Z,66.86
2018-09-04T11:50:01.681Z,67.44
2018-09-04T11:51:01.686Z,65.95
2018-09-04T11:52:01.698Z,66.72
2018-09-04T11:53:01.705Z,67.47
2018-09-04T11:54:01.713Z,67.28
2018-09-04T11:55:01.724Z,67.76
2018-09-04T11:56:01.729Z,67.80
2018-09-04T11:57:01.738Z,66.53
2018-09-04T11:58:01.745Z,65.75
2018-09-04T11:59:01.753Z,66.44
2018-09-04T12:00:01.761Z,65.66
2018-09-04T12:01:01.770Z,65.08
2018-09-04T12:02:01.793Z,66.24
2018-09-04T12:03:01.784Z,64.88
2018-09-04T12:04:01.793Z,65.37
2018-09-04T12:05:01.805Z,65.95
2018-09-04T12:06:01.809Z,66.63
2018-09-04T12:07:01.816Z,66.24
2018-09-04T12:08:01.830Z,65.37
2018-09-04T12:09:01.834Z,66.24
2018-09-04T12:10:01.845Z,66.86
2018-09-04T12:11:01.860Z,66.63
2018-09-04T12:12:01.856Z,67.31
2018-09-04T12:13:01.877Z,66.72
2018-09-04T12:14:01.873Z,66.53
2018-09-04T12:15:01.883Z,67.31
2018-09-04T12:16:01.889Z,66.56
2018-09-04T12:17:01.899Z,65.98
2018-09-04T12:18:01.906Z,65.79
2018-09-04T12:19:01.929Z,66.37
2018-09-04T12:20:01.920Z,67.34
2018-09-04T12:21:01.993Z,66.66
2018-09-04T12:22:01.936Z,66.66
2018-09-04T12:23:01.944Z,66.76
2018-09-04T12:24:01.954Z,66.02
2018-09-04T12:25:01.961Z,64.85
2018-09-04T12:26:01.972Z,64.46
2018-09-04T12:27:01.983Z,64.36
2018-09-04T12:28:01.984Z,66.11
2018-09-04T12:29:01.994Z,63.00
2018-09-04T12:30:02.001Z,63.71
2018-09-04T12:31:02.011Z,63.52
2018-09-04T12:32:02.020Z,63.42
2018-09-04T12:33:02.027Z,63.81
2018-09-04T12:34:02.150Z,63.81
2018-09-04T12:35:02.041Z,62.74
2018-09-04T12:36:02.048Z,63.23
2018-09-04T12:37:02.059Z,62.29
2018-09-04T12:38:02.065Z,62.38
2018-09-04T12:39:02.074Z,62.29
2018-09-04T12:40:02.082Z,63.75
2018-09-04T12:41:02.091Z,63.16
2018-09-04T12:42:02.098Z,63.42
2018-09-04T12:43:02.105Z,63.62
2018-09-04T12:44:02.115Z,63.78
2018-09-04T12:45:02.123Z,64.85
2018-09-04T12:46:02.130Z,63.65
2018-09-04T12:47:02.137Z,65.20
2018-09-04T12:48:02.152Z,66.08
2018-09-04T12:49:02.155Z,65.23
2018-09-04T12:50:02.165Z,66.40
2018-09-04T12:51:02.170Z,65.14
2018-09-04T12:52:02.213Z,64.49
2018-09-04T12:53:02.194Z,63.71